sensor_id;sensor_type;location;lat;lon;timestamp;pressure;altitude;pressure_sealevel;temperature;humidity
65872;BME280;52653;50.080;21.992;2023-03-21T00:03:07;98996.57;;;9.34;82.95
65872;BME280;52653;50.080;21.992;2023-03-21T00:06:03;98998.14;;;9.34;83.21
65872;BME280;52653;50.080;21.992;2023-03-21T00:08:56;98996.56;;;9.33;83.23
65872;BME280;52653;50.080;21.992;2023-03-21T00:11:48;98991.48;;;9.35;83.53
65872;BME280;52653;50.080;21.992;2023-03-21T00:14:31;98991.98;;;9.37;83.98
65872;BME280;52653;50.080;21.992;2023-03-21T00:17:26;98990.05;;;9.40;84.12
65872;BME280;52653;50.080;21.992;2023-03-21T00:20:22;98990.04;;;9.43;84.36
65872;BME280;52653;50.080;21.992;2023-03-21T00:23:14;98991.41;;;9.45;84.45
65872;BME280;52653;50.080;21.992;2023-03-21T00:26:07;98988.25;;;9.48;84.36
65872;BME280;52653;50.080;21.992;2023-03-21T00:29:00;98986.13;;;9.50;84.35
65872;BME280;52653;50.080;21.992;2023-03-21T00:31:53;98984.70;;;9.52;84.46
65872;BME280;52653;50.080;21.992;2023-03-21T00:34:46;98987.16;;;9.54;84.34
65872;BME280;52653;50.080;21.992;2023-03-21T00:37:59;98981.02;;;9.55;84.39
65872;BME280;52653;50.080;21.992;2023-03-21T00:40:53;98981.19;;;9.56;84.27
65872;BME280;52653;50.080;21.992;2023-03-21T00:43:44;98980.48;;;9.57;84.30
65872;BME280;52653;50.080;21.992;2023-03-21T00:46:35;98984.52;;;9.57;84.30
65872;BME280;52653;50.080;21.992;2023-03-21T00:49:50;98980.48;;;9.57;84.45
65872;BME280;52653;50.080;21.992;2023-03-21T00:52:42;98981.36;;;9.57;84.47
65872;BME280;52653;50.080;21.992;2023-03-21T00:55:35;98985.21;;;9.58;84.40
65872;BME280;52653;50.080;21.992;2023-03-21T00:58:21;98983.64;;;9.57;84.61
65872;BME280;52653;50.080;21.992;2023-03-21T01:01:14;98985.06;;;9.55;84.79
65872;BME280;52653;50.080;21.992;2023-03-21T01:04:09;98976.83;;;9.53;84.63
65872;BME280;52653;50.080;21.992;2023-03-21T01:07:06;98980.68;;;9.52;84.71
65872;BME280;52653;50.080;21.992;2023-03-21T01:09:53;98981.21;;;9.50;84.73
65872;BME280;52653;50.080;21.992;2023-03-21T01:12:45;98978.09;;;9.48;84.84
65872;BME280;52653;50.080;21.992;2023-03-21T01:15:31;98977.05;;;9.46;84.90
65872;BME280;52653;50.080;21.992;2023-03-21T01:18:28;98974.28;;;9.44;84.82
65872;BME280;52653;50.080;21.992;2023-03-21T01:21:21;98977.27;;;9.41;84.95
65872;BME280;52653;50.080;21.992;2023-03-21T01:24:14;98971.85;;;9.40;84.81
65872;BME280;52653;50.080;21.992;2023-03-21T01:27:07;98974.13;;;9.38;84.93
65872;BME280;52653;50.080;21.992;2023-03-21T01:29:53;98971.69;;;9.36;84.91
65872;BME280;52653;50.080;21.992;2023-03-21T01:32:48;98966.64;;;9.34;85.03
65872;BME280;52653;50.080;21.992;2023-03-21T01:35:20;98960.88;;;9.32;84.89
65872;BME280;52653;50.080;21.992;2023-03-21T01:37:54;98958.77;;;9.32;84.92
65872;BME280;52653;50.080;21.992;2023-03-21T01:40:39;98961.41;;;9.31;84.99
65872;BME280;52653;50.080;21.992;2023-03-21T01:43:34;98954.25;;;9.29;85.24
65872;BME280;52653;50.080;21.992;2023-03-21T01:46:30;98953.56;;;9.28;85.21
65872;BME280;52653;50.080;21.992;2023-03-21T01:49:43;98952.50;;;9.25;85.42
65872;BME280;52653;50.080;21.992;2023-03-21T01:52:22;98954.80;;;9.23;85.43
65872;BME280;52653;50.080;21.992;2023-03-21T01:55:12;98954.83;;;9.21;85.52
65872;BME280;52653;50.080;21.992;2023-03-21T01:58:15;98953.09;;;9.19;85.67
65872;BME280;52653;50.080;21.992;2023-03-21T02:01:09;98957.48;;;9.18;85.78
65872;BME280;52653;50.080;21.992;2023-03-21T02:04:03;98959.42;;;9.16;85.74
65872;BME280;52653;50.080;21.992;2023-03-21T02:07:16;98963.25;;;9.15;85.74
65872;BME280;52653;50.080;21.992;2023-03-21T02:10:19;98958.89;;;9.12;86.17
65872;BME280;52653;50.080;21.992;2023-03-21T02:13:12;98957.52;;;9.09;86.61
65872;BME280;52653;50.080;21.992;2023-03-21T02:15:55;98960.33;;;9.08;86.60
65872;BME280;52653;50.080;21.992;2023-03-21T02:18:55;98958.23;;;9.07;86.79
65872;BME280;52653;50.080;21.992;2023-03-21T02:25:16;98958.95;;;9.05;87.03
65872;BME280;52653;50.080;21.992;2023-03-21T02:28:10;98958.09;;;9.03;87.32
65872;BME280;52653;50.080;21.992;2023-03-21T02:31:13;98958.77;;;9.00;87.42
65872;BME280;52653;50.080;21.992;2023-03-21T02:34:14;98955.81;;;8.99;87.36
65872;BME280;52653;50.080;21.992;2023-03-21T02:36:58;98956.88;;;8.97;87.53
65872;BME280;52653;50.080;21.992;2023-03-21T02:39:54;98958.11;;;8.97;87.72
65872;BME280;52653;50.080;21.992;2023-03-21T02:42:36;98952.52;;;8.96;88.00
65872;BME280;52653;50.080;21.992;2023-03-21T02:45:18;98957.77;;;8.96;88.22
65872;BME280;52653;50.080;21.992;2023-03-21T02:48:02;98958.48;;;8.94;88.79
65872;BME280;52653;50.080;21.992;2023-03-21T02:50:41;98958.84;;;8.94;88.56
65872;BME280;52653;50.080;21.992;2023-03-21T02:53:18;98960.77;;;8.93;88.72
65872;BME280;52653;50.080;21.992;2023-03-21T02:55:54;98962.88;;;8.92;88.95
65872;BME280;52653;50.080;21.992;2023-03-21T02:58:29;98959.73;;;8.90;89.44
65872;BME280;52653;50.080;21.992;2023-03-21T03:01:04;98958.14;;;8.88;89.42
65872;BME280;52653;50.080;21.992;2023-03-21T03:03:46;98961.11;;;8.89;89.29
65872;BME280;52653;50.080;21.992;2023-03-21T03:06:39;98962.87;;;8.88;89.68
65872;BME280;52653;50.080;21.992;2023-03-21T03:09:48;98962.37;;;8.85;90.12
65872;BME280;52653;50.080;21.992;2023-03-21T03:12:26;98963.42;;;8.83;90.10
65872;BME280;52653;50.080;21.992;2023-03-21T03:15:10;98960.47;;;8.81;90.39
65872;BME280;52653;50.080;21.992;2023-03-21T03:18:01;98961.00;;;8.81;90.18
65872;BME280;52653;50.080;21.992;2023-03-21T03:20:44;98959.08;;;8.81;90.37
65872;BME280;52653;50.080;21.992;2023-03-21T03:23:27;98962.57;;;8.81;90.48
65872;BME280;52653;50.080;21.992;2023-03-21T03:26:05;98963.27;;;8.80;90.82
65872;BME280;52653;50.080;21.992;2023-03-21T03:28:43;98964.66;;;8.81;90.80
65872;BME280;52653;50.080;21.992;2023-03-21T03:31:23;98963.42;;;8.84;90.73
65872;BME280;52653;50.080;21.992;2023-03-21T03:34:04;98965.31;;;8.88;90.71
65872;BME280;52653;50.080;21.992;2023-03-21T03:36:44;98966.37;;;8.92;90.75
65872;BME280;52653;50.080;21.992;2023-03-21T03:39:21;98966.50;;;8.97;90.73
65872;BME280;52653;50.080;21.992;2023-03-21T03:42:04;98968.41;;;9.01;90.95
65872;BME280;52653;50.080;21.992;2023-03-21T03:45:01;98970.31;;;9.05;90.69
65872;BME280;52653;50.080;21.992;2023-03-21T03:47:39;98966.80;;;9.08;90.79
65872;BME280;52653;50.080;21.992;2023-03-21T03:50:31;98966.96;;;9.10;90.67
65872;BME280;52653;50.080;21.992;2023-03-21T03:53:18;98966.79;;;9.09;90.85
65872;BME280;52653;50.080;21.992;2023-03-21T03:55:55;98963.98;;;9.10;90.60
65872;BME280;52653;50.080;21.992;2023-03-21T03:58:30;98958.73;;;9.11;90.55
65872;BME280;52653;50.080;21.992;2023-03-21T04:01:17;98961.17;;;9.11;90.51
65872;BME280;52653;50.080;21.992;2023-03-21T04:04:11;98956.97;;;9.12;90.36
65872;BME280;52653;50.080;21.992;2023-03-21T04:06:59;98961.16;;;9.15;90.29
65872;BME280;52653;50.080;21.992;2023-03-21T04:09:44;98961.16;;;9.15;90.21
65872;BME280;52653;50.080;21.992;2023-03-21T04:12:20;98962.02;;;9.13;90.33
65872;BME280;52653;50.080;21.992;2023-03-21T04:15:10;98962.55;;;9.13;90.32
65872;BME280;52653;50.080;21.992;2023-03-21T04:17:46;98963.29;;;9.10;90.48
65872;BME280;52653;50.080;21.992;2023-03-21T04:20:20;98960.33;;;9.07;90.50
65872;BME280;52653;50.080;21.992;2023-03-21T04:23:07;98965.41;;;9.07;90.60
65872;BME280;52653;50.080;21.992;2023-03-21T04:25:41;98966.96;;;9.09;90.47
65872;BME280;52653;50.080;21.992;2023-03-21T04:28:31;98963.62;;;9.11;90.45
65872;BME280;52653;50.080;21.992;2023-03-21T04:31:15;98968.54;;;9.09;90.65
65872;BME280;52653;50.080;21.992;2023-03-21T04:34:05;98968.39;;;9.06;90.59
65872;BME280;52653;50.080;21.992;2023-03-21T04:36:42;98966.29;;;9.06;90.66
65872;BME280;52653;50.080;21.992;2023-03-21T04:39:19;98969.10;;;9.04;90.74
65872;BME280;52653;50.080;21.992;2023-03-21T04:41:55;98968.93;;;9.02;90.98
65872;BME280;52653;50.080;21.992;2023-03-21T04:44:28;98967.36;;;8.99;91.10
65872;BME280;52653;50.080;21.992;2023-03-21T04:47:03;98971.57;;;8.98;91.21
65872;BME280;52653;50.080;21.992;2023-03-21T04:49:37;98970.69;;;8.99;91.27
65872;BME280;52653;50.080;21.992;2023-03-21T04:52:10;98970.35;;;8.98;91.38
65872;BME280;52653;50.080;21.992;2023-03-21T04:54:43;98971.41;;;8.97;91.33
65872;BME280;52653;50.080;21.992;2023-03-21T04:57:16;98972.29;;;8.96;91.41
65872;BME280;52653;50.080;21.992;2023-03-21T04:59:49;98970.36;;;8.97;91.22
65872;BME280;52653;50.080;21.992;2023-03-21T05:02:22;98969.98;;;8.99;91.41
65872;BME280;52653;50.080;21.992;2023-03-21T05:04:57;98972.61;;;8.99;91.53
65872;BME280;52653;50.080;21.992;2023-03-21T05:07:34;98972.45;;;8.98;91.58
65872;BME280;52653;50.080;21.992;2023-03-21T05:10:09;98974.37;;;8.99;91.40
65872;BME280;52653;50.080;21.992;2023-03-21T05:12:43;98974.17;;;9.01;91.46
65872;BME280;52653;50.080;21.992;2023-03-21T05:15:16;98972.26;;;9.03;91.31
65872;BME280;52653;50.080;21.992;2023-03-21T05:17:50;98977.66;;;9.05;91.12
65872;BME280;52653;50.080;21.992;2023-03-21T05:20:23;98976.23;;;9.10;91.18
65872;BME280;52653;50.080;21.992;2023-03-21T05:22:55;98977.27;;;9.16;90.98
65872;BME280;52653;50.080;21.992;2023-03-21T05:25:29;98978.12;;;9.18;90.88
65872;BME280;52653;50.080;21.992;2023-03-21T05:28:11;98981.41;;;9.22;90.72
65872;BME280;52653;50.080;21.992;2023-03-21T05:30:55;98981.05;;;9.23;90.60
65872;BME280;52653;50.080;21.992;2023-03-21T05:33:28;98984.21;;;9.22;90.67
65872;BME280;52653;50.080;21.992;2023-03-21T05:36:01;98984.21;;;9.22;90.50
65872;BME280;52653;50.080;21.992;2023-03-21T05:38:35;98987.52;;;9.23;90.64
65872;BME280;52653;50.080;21.992;2023-03-21T05:41:20;98987.51;;;9.26;90.68
65872;BME280;52653;50.080;21.992;2023-03-21T05:44:06;98990.64;;;9.30;90.59
65872;BME280;52653;50.080;21.992;2023-03-21T05:46:39;98994.98;;;9.34;90.46
65872;BME280;52653;50.080;21.992;2023-03-21T05:49:14;98996.89;;;9.37;90.39
65872;BME280;52653;50.080;21.992;2023-03-21T05:51:47;99001.23;;;9.43;90.56
65872;BME280;52653;50.080;21.992;2023-03-21T05:54:25;98999.98;;;9.49;90.34
65872;BME280;52653;50.080;21.992;2023-03-21T05:57:01;99001.36;;;9.50;90.01
65872;BME280;52653;50.080;21.992;2023-03-21T06:00:11;99006.10;;;9.48;89.97
65872;BME280;52653;50.080;21.992;2023-03-21T06:02:47;99006.48;;;9.45;89.98
65872;BME280;52653;50.080;21.992;2023-03-21T06:05:38;99007.35;;;9.45;89.83
65872;BME280;52653;50.080;21.992;2023-03-21T06:08:14;99008.58;;;9.45;89.96
65872;BME280;52653;50.080;21.992;2023-03-21T06:10:48;99005.10;;;9.43;89.89
65872;BME280;52653;50.080;21.992;2023-03-21T06:13:21;99006.85;;;9.40;89.82
65872;BME280;52653;50.080;21.992;2023-03-21T06:15:54;99006.85;;;9.38;90.00
65872;BME280;52653;50.080;21.992;2023-03-21T06:18:28;99010.02;;;9.37;90.21
65872;BME280;52653;50.080;21.992;2023-03-21T06:21:16;99012.99;;;9.36;90.09
65872;BME280;52653;50.080;21.992;2023-03-21T06:23:51;99014.56;;;9.36;90.18
65872;BME280;52653;50.080;21.992;2023-03-21T06:26:25;99011.94;;;9.38;90.22
65872;BME280;52653;50.080;21.992;2023-03-21T06:28:59;99019.27;;;9.39;90.09
65872;BME280;52653;50.080;21.992;2023-03-21T06:31:33;99019.48;;;9.36;90.16
65872;BME280;52653;50.080;21.992;2023-03-21T06:34:06;99018.08;;;9.36;90.08
65872;BME280;52653;50.080;21.992;2023-03-21T06:36:41;99021.21;;;9.40;89.97
65872;BME280;52653;50.080;21.992;2023-03-21T06:39:16;99018.55;;;9.45;90.10
65872;BME280;52653;50.080;21.992;2023-03-21T06:41:51;99022.52;;;9.52;89.92
65872;BME280;52653;50.080;21.992;2023-03-21T06:44:28;99022.11;;;9.61;89.99
65872;BME280;52653;50.080;21.992;2023-03-21T06:47:05;99023.31;;;9.66;89.56
65872;BME280;52653;50.080;21.992;2023-03-21T06:49:42;99025.73;;;9.71;89.33
65872;BME280;52653;50.080;21.992;2023-03-21T06:52:17;99024.28;;;9.78;89.34
65872;BME280;52653;50.080;21.992;2023-03-21T06:55:05;99023.15;;;9.88;89.10
65872;BME280;52653;50.080;21.992;2023-03-21T06:57:42;99025.54;;;9.96;88.81
65872;BME280;52653;50.080;21.992;2023-03-21T07:00:19;99021.77;;;10.06;88.50
65872;BME280;52653;50.080;21.992;2023-03-21T07:02:54;99023.45;;;10.14;88.02
65872;BME280;52653;50.080;21.992;2023-03-21T07:05:29;99026.42;;;10.17;87.44
65872;BME280;52653;50.080;21.992;2023-03-21T07:08:03;99032.17;;;10.22;87.34
65872;BME280;52653;50.080;21.992;2023-03-21T07:10:38;99032.81;;;10.30;87.17
65872;BME280;52653;50.080;21.992;2023-03-21T07:13:14;99032.96;;;10.33;86.78
65872;BME280;52653;50.080;21.992;2023-03-21T07:15:53;99036.76;;;10.38;86.34
65872;BME280;52653;50.080;21.992;2023-03-21T07:18:27;99034.25;;;10.44;86.42
65872;BME280;52653;50.080;21.992;2023-03-21T07:21:03;99037.55;;;10.48;85.99
65872;BME280;52653;50.080;21.992;2023-03-21T07:23:37;99041.95;;;10.46;85.73
65872;BME280;52653;50.080;21.992;2023-03-21T07:26:10;99043.02;;;10.43;85.81
65872;BME280;52653;50.080;21.992;2023-03-21T07:28:43;99045.48;;;10.40;85.80
65872;BME280;52653;50.080;21.992;2023-03-21T07:31:17;99046.57;;;10.38;85.80
65872;BME280;52653;50.080;21.992;2023-03-21T07:34:01;99041.79;;;10.44;85.99
65872;BME280;52653;50.080;21.992;2023-03-21T07:36:45;99043.42;;;10.56;85.82
65872;BME280;52653;50.080;21.992;2023-03-21T07:39:18;99038.92;;;10.67;85.32
65872;BME280;52653;50.080;21.992;2023-03-21T07:41:51;99039.81;;;10.81;85.28
65872;BME280;52653;50.080;21.992;2023-03-21T07:44:37;99046.25;;;10.86;84.00
65872;BME280;52653;50.080;21.992;2023-03-21T07:47:10;99043.89;;;10.93;83.80
65872;BME280;52653;50.080;21.992;2023-03-21T07:49:45;99042.54;;;11.03;83.70
65872;BME280;52653;50.080;21.992;2023-03-21T07:52:19;99046.58;;;11.17;83.64
65872;BME280;52653;50.080;21.992;2023-03-21T07:54:54;99045.45;;;11.35;83.58
65872;BME280;52653;50.080;21.992;2023-03-21T07:57:27;99047.10;;;11.56;83.38
65872;BME280;52653;50.080;21.992;2023-03-21T08:00:00;99051.73;;;11.75;82.41
65872;BME280;52653;50.080;21.992;2023-03-21T08:02:42;99048.45;;;11.86;80.88
65872;BME280;52653;50.080;21.992;2023-03-21T08:05:15;99049.90;;;11.94;80.80
65872;BME280;52653;50.080;21.992;2023-03-21T08:07:54;99048.30;;;11.96;79.88
65872;BME280;52653;50.080;21.992;2023-03-21T08:10:27;99047.30;;;12.02;80.27
65872;BME280;52653;50.080;21.992;2023-03-21T08:13:00;99054.02;;;12.00;78.27
65872;BME280;52653;50.080;21.992;2023-03-21T08:15:34;99056.79;;;11.91;78.33
65872;BME280;52653;50.080;21.992;2023-03-21T08:18:11;99052.73;;;11.93;78.62
65872;BME280;52653;50.080;21.992;2023-03-21T08:20:44;99055.73;;;11.91;77.78
65872;BME280;52653;50.080;21.992;2023-03-21T08:23:17;99051.97;;;11.97;77.35
65872;BME280;52653;50.080;21.992;2023-03-21T08:25:53;99051.18;;;12.01;77.18
65872;BME280;52653;50.080;21.992;2023-03-21T08:28:27;99048.63;;;12.08;77.89
65872;BME280;52653;50.080;21.992;2023-03-21T08:31:07;99050.44;;;12.15;76.83
65872;BME280;52653;50.080;21.992;2023-03-21T08:33:40;99050.31;;;12.22;76.84
65872;BME280;52653;50.080;21.992;2023-03-21T08:36:14;99050.16;;;12.41;76.79
65872;BME280;52653;50.080;21.992;2023-03-21T08:38:47;99050.90;;;12.59;75.48
65872;BME280;52653;50.080;21.992;2023-03-21T08:41:24;99046.45;;;12.80;74.71
65872;BME280;52653;50.080;21.992;2023-03-21T08:43:58;99045.95;;;13.05;73.58
65872;BME280;52653;50.080;21.992;2023-03-21T08:46:34;99044.90;;;13.24;72.40
65872;BME280;52653;50.080;21.992;2023-03-21T08:49:07;99046.31;;;13.32;70.44
65872;BME280;52653;50.080;21.992;2023-03-21T08:51:40;99046.98;;;13.42;71.09
65872;BME280;52653;50.080;21.992;2023-03-21T08:54:21;99048.98;;;13.55;69.75
65872;BME280;52653;50.080;21.992;2023-03-21T08:56:54;99053.66;;;13.66;68.26
65872;BME280;52653;50.080;21.992;2023-03-21T08:59:27;99056.80;;;13.75;67.33
65872;BME280;52653;50.080;21.992;2023-03-21T09:02:03;99055.33;;;13.92;67.68
65872;BME280;52653;50.080;21.992;2023-03-21T09:04:36;99057.86;;;13.97;65.42
65872;BME280;52653;50.080;21.992;2023-03-21T09:07:09;99058.83;;;14.02;65.47
65872;BME280;52653;50.080;21.992;2023-03-21T09:09:42;99056.58;;;14.07;65.58
65872;BME280;52653;50.080;21.992;2023-03-21T09:12:20;99062.02;;;14.08;65.42
65872;BME280;52653;50.080;21.992;2023-03-21T09:15:00;99060.39;;;13.95;64.88
65872;BME280;52653;50.080;21.992;2023-03-21T09:17:33;99059.30;;;13.89;64.81
65872;BME280;52653;50.080;21.992;2023-03-21T09:20:07;99056.74;;;13.78;64.78
65872;BME280;52653;50.080;21.992;2023-03-21T09:22:46;99058.53;;;13.77;65.73
65872;BME280;52653;50.080;21.992;2023-03-21T09:25:19;99061.90;;;13.83;65.39
65872;BME280;52653;50.080;21.992;2023-03-21T09:27:53;99060.30;;;13.92;65.43
65872;BME280;52653;50.080;21.992;2023-03-21T09:30:39;99060.79;;;13.93;65.29
65872;BME280;52653;50.080;21.992;2023-03-21T09:33:15;99061.81;;;13.94;64.48
65872;BME280;52653;50.080;21.992;2023-03-21T09:35:52;99062.54;;;13.86;64.30
65872;BME280;52653;50.080;21.992;2023-03-21T09:38:46;99066.79;;;13.85;64.70
65872;BME280;52653;50.080;21.992;2023-03-21T09:41:34;99069.76;;;13.86;63.99
65872;BME280;52653;50.080;21.992;2023-03-21T09:44:39;99074.08;;;13.83;63.73
65872;BME280;52653;50.080;21.992;2023-03-21T09:47:19;99073.73;;;13.82;63.97
65872;BME280;52653;50.080;21.992;2023-03-21T09:49:55;99077.77;;;13.91;64.57
65872;BME280;52653;50.080;21.992;2023-03-21T09:52:47;99074.61;;;14.05;64.20
65872;BME280;52653;50.080;21.992;2023-03-21T09:55:24;99077.23;;;14.13;63.50
65872;BME280;52653;50.080;21.992;2023-03-21T09:58:05;99077.91;;;14.00;62.14
65872;BME280;52653;50.080;21.992;2023-03-21T10:00:48;99073.98;;;13.79;62.67
65872;BME280;52653;50.080;21.992;2023-03-21T10:03:32;99072.23;;;13.64;63.91
65872;BME280;52653;50.080;21.992;2023-03-21T10:06:12;99067.13;;;13.55;63.92
65872;BME280;52653;50.080;21.992;2023-03-21T10:08:50;99064.42;;;13.41;64.22
65872;BME280;52653;50.080;21.992;2023-03-21T10:11:26;99072.68;;;13.35;64.13
65872;BME280;52653;50.080;21.992;2023-03-21T10:14:04;99067.39;;;13.35;63.79
65872;BME280;52653;50.080;21.992;2023-03-21T10:16:42;99069.05;;;13.48;64.06
65872;BME280;52653;50.080;21.992;2023-03-21T10:19:18;99070.11;;;13.56;63.40
65872;BME280;52653;50.080;21.992;2023-03-21T10:21:52;99068.02;;;13.63;63.24
65872;BME280;52653;50.080;21.992;2023-03-21T10:24:35;99069.70;;;13.66;63.06
65872;BME280;52653;50.080;21.992;2023-03-21T10:27:08;99069.19;;;13.73;63.29
65872;BME280;52653;50.080;21.992;2023-03-21T10:29:44;99069.45;;;13.85;63.39
65872;BME280;52653;50.080;21.992;2023-03-21T10:32:17;99069.73;;;13.89;63.10
65872;BME280;52653;50.080;21.992;2023-03-21T10:34:54;99072.19;;;13.96;62.85
65872;BME280;52653;50.080;21.992;2023-03-21T10:37:29;99067.21;;;14.05;62.73
65872;BME280;52653;50.080;21.992;2023-03-21T10:40:09;99067.81;;;14.16;62.06
65872;BME280;52653;50.080;21.992;2023-03-21T10:42:49;99066.48;;;14.35;61.24
65872;BME280;52653;50.080;21.992;2023-03-21T10:45:24;99064.19;;;14.49;60.77
65872;BME280;52653;50.080;21.992;2023-03-21T10:47:57;99063.54;;;14.74;61.00
65872;BME280;52653;50.080;21.992;2023-03-21T10:50:31;99064.04;;;14.94;59.42
65872;BME280;52653;50.080;21.992;2023-03-21T10:53:06;99065.88;;;14.92;58.53
65872;BME280;52653;50.080;21.992;2023-03-21T10:55:47;99063.49;;;14.95;58.80
65872;BME280;52653;50.080;21.992;2023-03-21T10:58:26;99058.80;;;15.05;58.88
65872;BME280;52653;50.080;21.992;2023-03-21T11:01:04;99058.66;;;15.16;59.26
65872;BME280;52653;50.080;21.992;2023-03-21T11:03:40;99062.23;;;15.21;58.42
65872;BME280;52653;50.080;21.992;2023-03-21T11:06:25;99063.45;;;15.03;57.24
65872;BME280;52653;50.080;21.992;2023-03-21T11:09:03;99064.08;;;14.73;57.24
65872;BME280;52653;50.080;21.992;2023-03-21T11:11:53;99060.76;;;14.38;58.45
65872;BME280;52653;50.080;21.992;2023-03-21T11:14:34;99059.99;;;14.12;59.45
65872;BME280;52653;50.080;21.992;2023-03-21T11:17:22;99061.99;;;13.87;59.93
65872;BME280;52653;50.080;21.992;2023-03-21T11:19:59;99061.73;;;13.60;60.89
65872;BME280;52653;50.080;21.992;2023-03-21T11:22:40;99059.86;;;13.32;61.88
65872;BME280;52653;50.080;21.992;2023-03-21T11:25:21;99060.82;;;13.02;62.74
65872;BME280;52653;50.080;21.992;2023-03-21T11:27:56;99064.78;;;12.78;63.68
65872;BME280;52653;50.080;21.992;2023-03-21T11:30:29;99068.45;;;12.51;64.77
65872;BME280;52653;50.080;21.992;2023-03-21T11:33:03;99065.64;;;12.30;65.75
65872;BME280;52653;50.080;21.992;2023-03-21T11:35:40;99064.36;;;12.13;66.97
65872;BME280;52653;50.080;21.992;2023-03-21T11:38:26;99064.58;;;12.00;67.91
65872;BME280;52653;50.080;21.992;2023-03-21T11:41:05;99053.42;;;12.05;68.25
65872;BME280;52653;50.080;21.992;2023-03-21T11:44:00;99048.20;;;12.12;68.15
65872;BME280;52653;50.080;21.992;2023-03-21T11:46:54;99048.35;;;12.24;68.49
65872;BME280;52653;50.080;21.992;2023-03-21T11:49:47;99045.42;;;12.40;68.17
65872;BME280;52653;50.080;21.992;2023-03-21T11:56:21;99037.96;;;12.83;66.57
65872;BME280;52653;50.080;21.992;2023-03-21T11:59:25;99036.65;;;12.95;66.20
65872;BME280;52653;50.080;21.992;2023-03-21T12:02:25;99036.77;;;13.06;66.73
65872;BME280;52653;50.080;21.992;2023-03-21T12:05:03;99034.63;;;13.08;67.19
65872;BME280;52653;50.080;21.992;2023-03-21T12:07:49;99035.31;;;13.01;67.16
65872;BME280;52653;50.080;21.992;2023-03-21T12:10:34;99036.85;;;12.85;67.32
65872;BME280;52653;50.080;21.992;2023-03-21T12:13:29;99037.35;;;12.68;67.53
65872;BME280;52653;50.080;21.992;2023-03-21T12:16:20;99039.38;;;12.54;68.44
65872;BME280;52653;50.080;21.992;2023-03-21T12:19:17;99042.16;;;12.36;69.53
65872;BME280;52653;50.080;21.992;2023-03-21T12:21:59;99044.31;;;12.13;70.49
65872;BME280;52653;50.080;21.992;2023-03-21T12:24:43;99046.69;;;11.97;71.88
65872;BME280;52653;50.080;21.992;2023-03-21T12:27:36;99050.60;;;11.82;72.98
65872;BME280;52653;50.080;21.992;2023-03-21T12:30:26;99049.19;;;11.69;73.87
65872;BME280;52653;50.080;21.992;2023-03-21T12:36:11;99039.25;;;11.64;75.70
65872;BME280;52653;50.080;21.992;2023-03-21T12:38:52;99035.02;;;11.64;75.48
65872;BME280;52653;50.080;21.992;2023-03-21T12:41:40;99033.73;;;11.69;75.78
65872;BME280;52653;50.080;21.992;2023-03-21T12:44:22;99031.71;;;11.75;76.23
65872;BME280;52653;50.080;21.992;2023-03-21T12:47:03;99028.13;;;11.81;75.91
65872;BME280;52653;50.080;21.992;2023-03-21T12:49:41;99027.42;;;11.93;76.33
65872;BME280;52653;50.080;21.992;2023-03-21T12:52:30;99024.09;;;12.03;76.36
65872;BME280;52653;50.080;21.992;2023-03-21T12:55:12;99025.60;;;12.08;75.96
65872;BME280;52653;50.080;21.992;2023-03-21T12:57:51;99017.83;;;12.10;75.97
65872;BME280;52653;50.080;21.992;2023-03-21T13:00:51;99013.53;;;12.14;75.97
65872;BME280;52653;50.080;21.992;2023-03-21T13:03:47;99013.00;;;12.24;75.71
65872;BME280;52653;50.080;21.992;2023-03-21T13:06:44;99009.19;;;12.31;75.45
65872;BME280;52653;50.080;21.992;2023-03-21T13:09:26;99008.10;;;12.43;75.61
65872;BME280;52653;50.080;21.992;2023-03-21T13:12:39;99005.30;;;12.60;74.99
65872;BME280;52653;50.080;21.992;2023-03-21T13:15:48;99005.88;;;12.66;74.61
65872;BME280;52653;50.080;21.992;2023-03-21T13:18:51;99006.75;;;12.66;74.96
65872;BME280;52653;50.080;21.992;2023-03-21T13:21:53;99005.65;;;12.69;75.12
65872;BME280;52653;50.080;21.992;2023-03-21T13:24:40;99001.92;;;12.63;74.67
65872;BME280;52653;50.080;21.992;2023-03-21T13:27:28;99002.05;;;12.55;74.81
65872;BME280;52653;50.080;21.992;2023-03-21T13:30:21;99000.42;;;12.58;75.28
65872;BME280;52653;50.080;21.992;2023-03-21T13:33:10;99001.13;;;12.76;75.11
65872;BME280;52653;50.080;21.992;2023-03-21T13:36:11;98996.23;;;13.01;73.49
65872;BME280;52653;50.080;21.992;2023-03-21T13:39:11;98994.65;;;13.26;72.61
65872;BME280;52653;50.080;21.992;2023-03-21T13:41:51;98993.76;;;13.42;71.95
65872;BME280;52653;50.080;21.992;2023-03-21T13:44:40;98990.30;;;13.62;71.63
65872;BME280;52653;50.080;21.992;2023-03-21T13:47:36;98985.10;;;13.81;70.97
65872;BME280;52653;50.080;21.992;2023-03-21T13:50:24;98981.62;;;13.93;70.14
65872;BME280;52653;50.080;21.992;2023-03-21T13:53:33;98984.89;;;13.82;69.71
65872;BME280;52653;50.080;21.992;2023-03-21T13:56:27;98985.63;;;13.66;70.33
65872;BME280;52653;50.080;21.992;2023-03-21T13:59:10;98982.27;;;13.59;71.10
65872;BME280;52653;50.080;21.992;2023-03-21T14:02:01;98978.69;;;13.46;71.38
65872;BME280;52653;50.080;21.992;2023-03-21T14:04:43;98981.48;;;13.24;71.99
65872;BME280;52653;50.080;21.992;2023-03-21T14:07:42;98977.34;;;13.03;72.38
65872;BME280;52653;50.080;21.992;2023-03-21T14:10:32;98983.28;;;12.79;72.50
65872;BME280;52653;50.080;21.992;2023-03-21T14:13:06;98984.11;;;12.55;72.93
65872;BME280;52653;50.080;21.992;2023-03-21T14:15:44;98984.42;;;12.39;73.87
65872;BME280;52653;50.080;21.992;2023-03-21T14:18:28;98990.67;;;12.24;74.39
65872;BME280;52653;50.080;21.992;2023-03-21T14:21:48;99008.84;;;11.89;76.05
65872;BME280;52653;50.080;21.992;2023-03-21T14:24:27;99011.89;;;11.49;76.66
65872;BME280;52653;50.080;21.992;2023-03-21T14:27:14;99008.30;;;11.18;76.99
65872;BME280;52653;50.080;21.992;2023-03-21T14:30:18;99007.38;;;10.94;77.43